PrentiSS Brown — WDE6848 — position and weather

sailwx.info

Track history (hours):
 
Tides and Currents Weather Stations Pressure Air Temp Water Temp Dewpoint Dewpoint Depression Visibility Wind Speed Wind Dir Waves Ship Positions

PrentiSS Brown

Owner: Port City Marine Services Inc, Muskegon, MI. More information available from US FCC via Universal Licensing System and Coast Guard Vessel Documentation Center.

Last reported at 2016-Sep-27 19:33 UTC. Time now 2016-Sep-27 22:25 UTC.
Position N 45°14' W 085°35'.

; draft 7 m.

Type: Other ship. MMSI: 366922280.

Date/timePositionNaut miles runAvg speedWind from/ knotsBaromVisibWave heightAir tempDewpointWater temp
2016-Sep-27 19:33N 45°14' W 085°35'13 2.6
2016-Sep-27 14:33N 45°19' W 085°18'0 0.0
2016-Sep-27 13:33N 45°19' W 085°18'0 0.0
2016-Sep-27 10:33N 45°19' W 085°18'0 0.0
2016-Sep-27 00:33N 45°19' W 085°18'0 0.0
2016-Sep-26 20:33N 45°19' W 085°18'0 0.0
2016-Sep-26 19:33N 45°19' W 085°18'0 0.0
2016-Sep-26 15:33N 45°19' W 085°18'0 0.0
2016-Sep-26 13:33N 45°19' W 085°18'1 0.5
2016-Sep-26 11:34N 45°20' W 085°18'  
2016-Sep-23 02:33N 45°15' W 085°34'8 8.3
2016-Sep-23 01:34N 45°19' W 085°24'5 4.6
2016-Sep-23 00:34N 45°19' W 085°18'0 0.1
2016-Sep-22 23:34N 45°19' W 085°18'0 0.0
2016-Sep-22 20:33N 45°19' W 085°18'39 4.9
2016-Sep-22 12:33N 45°47' W 084°38'  
2016-Sep-19 23:33N 45°43' W 084°30'28 7.1
2016-Sep-19 19:33N 45°44' W 085°10'8 8.2
2016-Sep-19 18:33N 45°36' W 085°15'16 8.2
2016-Sep-19 16:33N 45°20' W 085°17'1 0.5
2016-Sep-19 14:33N 45°19' W 085°18'0 0.0
2016-Sep-19 13:33N 45°19' W 085°18'0 0.0
2016-Sep-19 12:33N 45°19' W 085°18'0 0.0
2016-Sep-19 11:33N 45°19' W 085°18'0 0.0
2016-Sep-19 09:33N 45°19' W 085°18'8 4.2
2016-Sep-19 07:33N 45°17' W 085°29'9 9.1
2016-Sep-19 06:32N 45°12' W 085°40'  
Track history (hours):
 
Tides and Currents Weather Stations Pressure Air Temp Water Temp Dewpoint Dewpoint Depression Visibility Wind Speed Wind Dir Waves Ship Positions

PrentiSS Brown

Owner: Port City Marine Services Inc, Muskegon, MI. More information available from US FCC via Universal Licensing System and Coast Guard Vessel Documentation Center.

Last reported at 2016-Sep-27 19:33 UTC. Time now 2016-Sep-27 22:25 UTC.
Position N 45°14' W 085°35'.

; draft 7 m.

Type: Other ship. MMSI: 366922280.

Date/timePositionNaut miles runAvg speedWind from/ knotsBaromVisibWave heightAir tempDewpointWater temp
2016-Sep-27 19:33N 45°14' W 085°35'13 2.6
2016-Sep-27 14:33N 45°19' W 085°18'0 0.0
2016-Sep-27 13:33N 45°19' W 085°18'0 0.0
2016-Sep-27 10:33N 45°19' W 085°18'0 0.0
2016-Sep-27 00:33N 45°19' W 085°18'0 0.0
2016-Sep-26 20:33N 45°19' W 085°18'0 0.0
2016-Sep-26 19:33N 45°19' W 085°18'0 0.0
2016-Sep-26 15:33N 45°19' W 085°18'0 0.0
2016-Sep-26 13:33N 45°19' W 085°18'1 0.5
2016-Sep-26 11:34N 45°20' W 085°18'  
2016-Sep-23 02:33N 45°15' W 085°34'8 8.3
2016-Sep-23 01:34N 45°19' W 085°24'5 4.6
2016-Sep-23 00:34N 45°19' W 085°18'0 0.1
2016-Sep-22 23:34N 45°19' W 085°18'0 0.0
2016-Sep-22 20:33N 45°19' W 085°18'39 4.9
2016-Sep-22 12:33N 45°47' W 084°38'  
2016-Sep-19 23:33N 45°43' W 084°30'28 7.1
2016-Sep-19 19:33N 45°44' W 085°10'8 8.2
2016-Sep-19 18:33N 45°36' W 085°15'16 8.2
2016-Sep-19 16:33N 45°20' W 085°17'1 0.5
2016-Sep-19 14:33N 45°19' W 085°18'0 0.0
2016-Sep-19 13:33N 45°19' W 085°18'0 0.0
2016-Sep-19 12:33N 45°19' W 085°18'0 0.0
2016-Sep-19 11:33N 45°19' W 085°18'0 0.0
2016-Sep-19 09:33N 45°19' W 085°18'8 4.2
2016-Sep-19 07:33N 45°17' W 085°29'9 9.1
2016-Sep-19 06:32N 45°12' W 085°40'  

Dump ship's entire track history